createdAt,value
2024-04-30T00:01:58.789Z,59.64
2024-04-30T00:04:26.736Z,59.72
2024-04-30T00:06:55.234Z,59.94
2024-04-30T00:09:23.165Z,59.92
2024-04-30T00:11:51.130Z,60.02
2024-04-30T00:14:19.059Z,59.94
2024-04-30T00:16:46.903Z,60.17
2024-04-30T00:19:14.965Z,60.61
2024-04-30T00:21:43.392Z,60.40
2024-04-30T00:24:12.428Z,60.79
2024-04-30T00:26:40.463Z,60.59
2024-04-30T00:29:08.393Z,60.58
2024-04-30T00:31:40.402Z,60.61
2024-04-30T00:34:08.299Z,60.90
2024-04-30T00:36:39.828Z,61.20
2024-04-30T00:39:09.378Z,61.43
2024-04-30T00:41:37.265Z,61.16
2024-04-30T00:44:05.518Z,61.55
2024-04-30T00:46:36.089Z,61.97
2024-04-30T00:49:04.471Z,61.97
2024-04-30T00:51:32.770Z,61.97
2024-04-30T00:54:00.667Z,62.17
2024-04-30T00:56:28.601Z,62.39
2024-04-30T00:58:56.609Z,62.61
2024-04-30T01:01:24.639Z,62.77
2024-04-30T01:03:52.554Z,62.83
2024-04-30T01:06:20.562Z,63.02
2024-04-30T01:08:48.480Z,63.07
2024-04-30T01:11:16.423Z,63.50
2024-04-30T01:13:44.357Z,63.97
2024-04-30T01:16:12.412Z,64.07
2024-04-30T01:18:40.278Z,63.78
2024-04-30T01:21:08.360Z,63.88
2024-04-30T01:23:36.264Z,63.70
2024-04-30T01:26:04.354Z,63.88
2024-04-30T01:28:32.501Z,64.17
2024-04-30T01:31:00.441Z,64.30
2024-04-30T01:33:28.582Z,64.72
2024-04-30T01:35:56.463Z,64.97
2024-04-30T01:38:24.376Z,65.15
2024-04-30T01:40:52.285Z,65.49
2024-04-30T01:43:20.357Z,65.47
2024-04-30T01:45:48.307Z,65.73
2024-04-30T01:48:16.381Z,65.85
2024-04-30T01:50:44.379Z,65.91
2024-04-30T01:53:12.303Z,66.17
2024-04-30T01:55:40.292Z,66.12
2024-04-30T01:58:08.836Z,65.97
2024-04-30T02:00:36.761Z,65.83
2024-04-30T02:03:06.735Z,65.94
2024-04-30T02:05:34.999Z,66.49
2024-04-30T02:08:03.009Z,66.76
2024-04-30T02:10:30.954Z,66.82
2024-04-30T02:12:58.968Z,67.20
2024-04-30T02:15:26.825Z,67.39
2024-04-30T02:17:54.904Z,67.66
2024-04-30T02:20:23.050Z,67.61
2024-04-30T02:22:51.022Z,67.85
2024-04-30T02:25:19.058Z,67.85
2024-04-30T02:27:46.913Z,68.03
2024-04-30T02:30:33.467Z,68.22
2024-04-30T02:33:19.717Z,67.93
2024-04-30T02:35:47.636Z,68.81
2024-04-30T02:38:15.453Z,68.20
2024-04-30T02:40:43.475Z,68.17
2024-04-30T02:43:11.389Z,68.49
2024-04-30T02:45:39.295Z,68.45
2024-04-30T02:48:07.377Z,68.73
2024-04-30T02:50:35.374Z,68.56
2024-04-30T02:53:03.315Z,68.30
2024-04-30T02:55:35.797Z,68.18
2024-04-30T02:58:04.091Z,68.52
2024-04-30T03:00:32.074Z,68.63
2024-04-30T03:02:59.960Z,68.40
2024-04-30T03:05:27.841Z,68.51
2024-04-30T03:07:55.734Z,68.38
2024-04-30T03:10:23.698Z,68.18
2024-04-30T03:12:51.784Z,68.12
2024-04-30T03:15:19.783Z,69.24
2024-04-30T03:17:48.022Z,68.82
2024-04-30T03:20:17.590Z,68.45
2024-04-30T03:22:49.019Z,68.57
2024-04-30T03:25:16.935Z,68.50
2024-04-30T03:27:44.869Z,68.50
2024-04-30T03:30:12.975Z,68.80
2024-04-30T03:32:42.284Z,68.82
2024-04-30T03:35:10.389Z,68.77
2024-04-30T03:37:38.550Z,68.92
2024-04-30T03:40:07.519Z,68.76
2024-04-30T03:42:37.431Z,68.84
2024-04-30T03:45:05.815Z,68.96
2024-04-30T03:47:34.001Z,69.14
2024-04-30T03:50:02.565Z,68.61
2024-04-30T03:52:30.929Z,68.88
2024-04-30T03:54:59.223Z,68.86
2024-04-30T03:57:27.297Z,68.97
2024-04-30T03:59:55.205Z,69.23
2024-04-30T04:02:23.260Z,68.98
2024-04-30T04:04:51.307Z,69.11
2024-04-30T04:07:19.396Z,69.43
2024-04-30T04:09:49.340Z,69.26
2024-04-30T04:12:35.817Z,69.35
2024-04-30T04:15:04.066Z,69.12
2024-04-30T04:17:31.982Z,68.99
2024-04-30T04:19:59.933Z,68.86
2024-04-30T04:22:27.858Z,69.02
2024-04-30T04:24:56.070Z,68.91
2024-04-30T04:27:24.418Z,68.60
2024-04-30T04:29:52.269Z,68.16
2024-04-30T04:32:20.173Z,67.93
2024-04-30T04:34:48.217Z,67.85
2024-04-30T04:37:16.173Z,67.18
2024-04-30T04:39:44.031Z,66.54
2024-04-30T04:42:11.944Z,66.59
2024-04-30T04:44:39.846Z,66.28
2024-04-30T04:47:07.705Z,66.15
2024-04-30T04:49:35.586Z,66.19
2024-04-30T04:52:03.773Z,66.07
2024-04-30T04:54:31.720Z,65.78
2024-04-30T04:56:59.792Z,65.93
2024-04-30T04:59:27.803Z,65.24
2024-04-30T05:01:55.721Z,63.82
2024-04-30T05:04:23.797Z,61.94
2024-04-30T05:06:53.357Z,60.53
2024-04-30T05:09:28.354Z,58.38
2024-04-30T05:11:56.456Z,57.49
2024-04-30T05:14:24.325Z,57.27
2024-04-30T05:16:52.471Z,57.19
2024-04-30T05:19:20.571Z,57.22
2024-04-30T05:21:48.580Z,56.16
2024-04-30T05:24:16.394Z,56.65
2024-04-30T05:26:44.219Z,56.98
2024-04-30T05:29:12.178Z,57.03
2024-04-30T05:31:40.073Z,57.11
2024-04-30T05:34:08.074Z,56.99
2024-04-30T05:36:35.937Z,56.68
2024-04-30T05:39:04.057Z,56.54
2024-04-30T05:41:32.003Z,56.74
2024-04-30T05:43:59.832Z,56.20
2024-04-30T05:46:27.898Z,55.44
2024-04-30T05:48:57.075Z,54.13
2024-04-30T05:51:24.957Z,52.64
2024-04-30T05:53:55.848Z,53.33
2024-04-30T05:56:24.222Z,52.30
2024-04-30T05:58:52.124Z,52.04
2024-04-30T06:01:20.145Z,52.43
2024-04-30T06:03:48.370Z,50.98
2024-04-30T06:06:16.717Z,51.37
2024-04-30T06:08:44.708Z,51.09
2024-04-30T06:11:12.656Z,51.45
2024-04-30T06:13:41.151Z,51.36
2024-04-30T06:16:09.244Z,51.28
2024-04-30T06:18:37.401Z,51.09
2024-04-30T06:21:05.581Z,51.01
2024-04-30T06:23:34.468Z,50.85
2024-04-30T06:26:04.286Z,50.94
2024-04-30T06:28:34.768Z,50.96
2024-04-30T06:31:03.145Z,50.44
2024-04-30T06:33:31.435Z,50.19
2024-04-30T06:35:59.509Z,50.38
2024-04-30T06:38:29.412Z,50.33
2024-04-30T06:40:57.409Z,50.47
2024-04-30T06:43:25.280Z,50.36
2024-04-30T06:45:53.302Z,50.34
2024-04-30T06:48:21.238Z,49.89
2024-04-30T06:50:49.335Z,49.59
2024-04-30T06:53:17.191Z,49.10
2024-04-30T06:55:45.093Z,48.87
2024-04-30T06:58:13.163Z,48.37
2024-04-30T07:00:42.109Z,48.11
2024-04-30T07:03:11.104Z,47.23
2024-04-30T07:05:39.422Z,46.56
2024-04-30T07:08:08.079Z,45.50
2024-04-30T07:10:36.006Z,46.10
2024-04-30T07:13:04.235Z,42.69
2024-04-30T07:15:32.208Z,40.56
2024-04-30T07:18:00.279Z,39.43
2024-04-30T07:20:28.273Z,39.46
2024-04-30T07:22:56.275Z,39.64
2024-04-30T07:25:24.216Z,40.02
2024-04-30T07:27:52.232Z,38.59
2024-04-30T07:30:20.378Z,38.32
2024-04-30T07:32:48.659Z,37.66
2024-04-30T07:35:16.734Z,37.78
2024-04-30T07:37:44.646Z,37.16
2024-04-30T07:40:13.148Z,37.26
2024-04-30T07:42:41.044Z,36.66
2024-04-30T07:45:09.069Z,36.80
2024-04-30T07:47:37.179Z,36.27
2024-04-30T07:50:05.089Z,35.61
2024-04-30T07:52:33.157Z,34.84
2024-04-30T07:55:01.186Z,35.66
2024-04-30T07:57:29.163Z,36.18
2024-04-30T07:59:57.302Z,35.38
2024-04-30T08:02:25.352Z,34.97
2024-04-30T08:04:53.361Z,35.40
2024-04-30T08:07:21.285Z,35.65
2024-04-30T08:09:50.374Z,35.36
2024-04-30T08:12:18.326Z,34.88
2024-04-30T08:14:46.275Z,33.88
2024-04-30T08:17:14.067Z,33.76
2024-04-30T08:19:42.141Z,33.32
2024-04-30T08:22:10.162Z,33.52
2024-04-30T08:24:38.169Z,33.95
2024-04-30T08:27:06.128Z,34.22
2024-04-30T08:29:33.923Z,34.35
2024-04-30T08:32:02.316Z,33.92
2024-04-30T08:34:30.304Z,34.01
2024-04-30T08:36:58.128Z,34.34
2024-04-30T08:39:26.064Z,34.36
2024-04-30T08:41:56.321Z,34.15
2024-04-30T08:44:24.910Z,34.68
2024-04-30T08:46:54.734Z,34.86
2024-04-30T08:49:33.678Z,33.95
2024-04-30T08:52:09.861Z,33.24
2024-04-30T08:54:41.402Z,33.13
2024-04-30T08:57:09.397Z,32.30
2024-04-30T08:59:38.682Z,32.08
2024-04-30T09:02:08.140Z,31.98
2024-04-30T09:04:39.978Z,31.58
2024-04-30T09:07:08.103Z,31.84
2024-04-30T09:09:36.110Z,32.21
2024-04-30T09:12:04.464Z,31.10
2024-04-30T09:14:43.070Z,30.86
2024-04-30T09:17:11.343Z,31.22
2024-04-30T09:19:39.468Z,30.71
2024-04-30T09:22:07.760Z,30.41
2024-04-30T09:24:46.785Z,30.72
2024-04-30T09:27:15.076Z,30.88
2024-04-30T09:29:44.749Z,31.15
2024-04-30T09:32:22.446Z,31.10
2024-04-30T09:34:51.163Z,30.26
2024-04-30T09:37:23.068Z,30.33
2024-04-30T09:39:53.881Z,30.49
2024-04-30T09:42:26.967Z,30.88
2024-04-30T09:44:55.741Z,30.05
2024-04-30T09:47:25.108Z,30.39
2024-04-30T09:49:55.395Z,29.85
2024-04-30T09:52:25.419Z,29.46
2024-04-30T09:54:56.044Z,30.33
2024-04-30T09:57:25.561Z,29.21
2024-04-30T09:59:53.514Z,29.48
2024-04-30T10:02:23.020Z,28.54
2024-04-30T10:04:53.445Z,28.27
2024-04-30T10:07:22.662Z,28.01
2024-04-30T10:09:54.486Z,28.85
2024-04-30T10:12:24.040Z,29.15
2024-04-30T10:14:52.990Z,28.35
2024-04-30T10:17:20.976Z,28.15
2024-04-30T10:19:49.062Z,28.65
2024-04-30T10:22:18.109Z,27.89
2024-04-30T10:24:46.146Z,28.35
2024-04-30T10:27:25.287Z,27.63
2024-04-30T10:29:53.203Z,28.37
2024-04-30T10:32:21.252Z,28.03
2024-04-30T10:34:58.732Z,28.15
2024-04-30T10:37:31.309Z,28.45
2024-04-30T10:40:19.027Z,27.77
2024-04-30T10:42:46.890Z,28.64
2024-04-30T10:45:25.069Z,28.58
2024-04-30T10:47:53.295Z,27.91
2024-04-30T10:50:21.801Z,27.75
2024-04-30T10:52:49.927Z,27.96
2024-04-30T10:55:21.237Z,28.70
2024-04-30T10:57:49.259Z,28.52
2024-04-30T11:00:17.518Z,28.62
2024-04-30T11:02:50.356Z,27.90
2024-04-30T11:05:23.824Z,26.30
2024-04-30T11:07:59.429Z,25.37
2024-04-30T11:10:33.728Z,25.88
2024-04-30T11:13:08.200Z,26.26
2024-04-30T11:15:59.408Z,26.47
2024-04-30T11:18:32.242Z,26.86
2024-04-30T11:21:00.172Z,26.71
2024-04-30T11:23:28.031Z,26.69
2024-04-30T11:25:56.107Z,25.95
2024-04-30T11:28:23.924Z,25.86
2024-04-30T11:30:51.734Z,26.18
2024-04-30T11:33:19.874Z,26.84
2024-04-30T11:35:47.803Z,26.43
2024-04-30T11:38:15.661Z,27.45
2024-04-30T11:40:43.643Z,28.09
2024-04-30T11:43:11.515Z,28.25
2024-04-30T11:45:39.385Z,28.07
2024-04-30T11:48:07.773Z,28.78
2024-04-30T11:50:35.708Z,28.47
2024-04-30T11:53:03.935Z,28.68
2024-04-30T11:55:32.010Z,28.15
2024-04-30T11:58:02.727Z,27.18
2024-04-30T12:00:30.591Z,26.02
2024-04-30T12:02:58.571Z,25.99
2024-04-30T12:05:26.582Z,26.07
2024-04-30T12:07:54.605Z,26.06
2024-04-30T12:10:23.696Z,26.16
2024-04-30T12:12:52.046Z,26.01
2024-04-30T12:15:20.058Z,26.58
2024-04-30T12:17:48.251Z,26.28
2024-04-30T12:20:16.219Z,26.15
2024-04-30T12:22:44.711Z,25.82
2024-04-30T12:25:12.958Z,25.83
2024-04-30T12:27:40.914Z,25.84
2024-04-30T12:30:09.055Z,26.38
2024-04-30T12:32:36.866Z,26.95
2024-04-30T12:35:05.094Z,27.21
2024-04-30T12:37:33.010Z,27.28
2024-04-30T12:40:02.879Z,27.93
2024-04-30T12:42:32.143Z,27.76
2024-04-30T12:45:00.006Z,27.13
2024-04-30T12:47:28.281Z,27.37
2024-04-30T12:49:56.159Z,28.05
2024-04-30T12:52:24.163Z,27.34
2024-04-30T12:54:52.207Z,27.48
2024-04-30T12:57:20.124Z,26.81
2024-04-30T12:59:48.105Z,26.55
2024-04-30T13:02:16.037Z,25.89
2024-04-30T13:04:43.899Z,25.77
2024-04-30T13:07:11.930Z,25.98
2024-04-30T13:09:42.240Z,25.84
2024-04-30T13:12:10.502Z,25.46
2024-04-30T13:14:38.292Z,26.08
2024-04-30T13:17:06.106Z,25.79
2024-04-30T13:19:34.077Z,24.90
2024-04-30T13:22:02.190Z,24.04
2024-04-30T13:24:30.187Z,23.67
2024-04-30T13:26:58.077Z,24.21
2024-04-30T13:29:26.187Z,24.30
2024-04-30T13:31:55.750Z,23.21
2024-04-30T13:34:23.648Z,22.70
2024-04-30T13:36:51.552Z,22.74
2024-04-30T13:39:20.168Z,23.22
2024-04-30T13:41:49.075Z,23.22
2024-04-30T13:44:16.948Z,24.37
2024-04-30T13:46:45.010Z,24.46
2024-04-30T13:49:13.066Z,23.92
2024-04-30T13:51:40.957Z,24.45
2024-04-30T13:54:09.417Z,23.86
2024-04-30T13:56:37.324Z,23.92
2024-04-30T13:59:08.331Z,24.09
2024-04-30T14:01:37.221Z,23.98
2024-04-30T14:04:05.395Z,24.21
2024-04-30T14:06:33.362Z,23.39
2024-04-30T14:09:01.386Z,22.94
2024-04-30T14:11:29.367Z,23.14
2024-04-30T14:13:57.279Z,23.45
2024-04-30T14:16:25.212Z,23.47
2024-04-30T14:18:53.888Z,22.90
2024-04-30T14:21:21.716Z,23.13
2024-04-30T14:23:49.498Z,23.04
2024-04-30T14:26:18.344Z,22.20
2024-04-30T14:28:46.346Z,21.90
2024-04-30T14:31:17.350Z,22.16
2024-04-30T14:33:46.896Z,22.21
2024-04-30T14:36:37.036Z,22.87
2024-04-30T14:39:07.404Z,22.38
2024-04-30T14:41:36.267Z,22.46
2024-04-30T14:44:04.497Z,22.44
2024-04-30T14:46:33.462Z,22.73
2024-04-30T14:49:01.790Z,23.02
2024-04-30T14:51:38.011Z,22.95
2024-04-30T14:54:06.575Z,23.39
2024-04-30T14:56:34.871Z,24.74
2024-04-30T14:59:03.376Z,24.56
2024-04-30T15:01:31.334Z,24.49
2024-04-30T15:03:59.629Z,24.52
2024-04-30T15:06:29.351Z,24.27
2024-04-30T15:08:57.344Z,24.45
2024-04-30T15:11:25.899Z,24.97
2024-04-30T15:13:54.123Z,25.05
2024-04-30T15:16:21.946Z,25.08
2024-04-30T15:18:49.831Z,25.14
2024-04-30T15:21:17.757Z,25.37
2024-04-30T15:23:45.778Z,25.72
2024-04-30T15:26:15.333Z,25.59
2024-04-30T15:28:43.700Z,25.77
2024-04-30T15:31:18.663Z,26.06
2024-04-30T15:33:47.672Z,26.26
2024-04-30T15:36:15.923Z,25.70
2024-04-30T15:38:46.228Z,25.37
2024-04-30T15:41:23.640Z,25.31
2024-04-30T15:43:51.860Z,25.60
2024-04-30T15:46:20.137Z,25.93
2024-04-30T15:48:50.825Z,25.97
2024-04-30T15:51:19.401Z,25.87
2024-04-30T15:53:47.277Z,25.80
2024-04-30T15:56:17.830Z,25.93
2024-04-30T15:58:48.212Z,26.40
2024-04-30T16:01:16.604Z,26.63
2024-04-30T16:03:44.972Z,26.43
2024-04-30T16:06:14.416Z,26.45
2024-04-30T16:08:42.413Z,26.46
2024-04-30T16:11:11.730Z,26.25
2024-04-30T16:13:41.554Z,26.54
2024-04-30T16:16:16.413Z,26.67
2024-04-30T16:22:09.060Z,26.47
2024-04-30T16:24:42.742Z,26.63
2024-04-30T16:27:11.554Z,26.80
2024-04-30T16:29:39.518Z,27.16
2024-04-30T16:32:08.372Z,27.26
2024-04-30T16:34:36.243Z,27.50
2024-04-30T16:37:04.389Z,27.66
2024-04-30T16:39:32.588Z,27.87
2024-04-30T16:42:00.572Z,28.03
2024-04-30T16:44:36.937Z,28.27
2024-04-30T16:47:12.481Z,28.47
2024-04-30T16:49:40.494Z,28.55
2024-04-30T16:52:08.351Z,28.65
2024-04-30T16:54:36.190Z,28.81
2024-04-30T16:57:04.304Z,29.02
2024-04-30T16:59:32.504Z,29.07
2024-04-30T17:02:00.342Z,29.45
2024-04-30T17:04:28.282Z,29.46
2024-04-30T17:06:56.142Z,29.58
2024-04-30T17:09:24.072Z,29.81
2024-04-30T17:11:51.965Z,29.93
2024-04-30T17:14:19.820Z,30.11
2024-04-30T17:16:47.674Z,30.36
2024-04-30T17:19:15.463Z,30.40
2024-04-30T17:21:44.466Z,30.41
2024-04-30T17:24:13.530Z,30.67
2024-04-30T17:26:47.945Z,30.86
2024-04-30T17:29:16.735Z,31.00
2024-04-30T17:31:45.551Z,31.07
2024-04-30T17:34:13.569Z,31.38
2024-04-30T17:36:43.494Z,31.65
2024-04-30T17:39:14.501Z,31.64
2024-04-30T17:41:42.266Z,32.33
2024-04-30T17:44:11.882Z,32.42
2024-04-30T17:46:43.490Z,32.58
2024-04-30T17:49:12.829Z,32.96
2024-04-30T17:51:44.083Z,33.37
2024-04-30T17:54:14.476Z,34.01
2024-04-30T17:56:43.579Z,34.78
2024-04-30T17:59:11.486Z,34.84
2024-04-30T18:01:44.559Z,35.43
2024-04-30T18:04:13.532Z,35.64
2024-04-30T18:06:41.985Z,36.01
2024-04-30T18:09:09.925Z,36.16
2024-04-30T18:11:39.299Z,36.46
2024-04-30T18:14:07.178Z,36.73
2024-04-30T18:16:39.393Z,37.39
2024-04-30T18:19:08.595Z,37.82
2024-04-30T18:21:37.626Z,37.72
2024-04-30T18:24:07.042Z,38.13
2024-04-30T18:26:42.551Z,38.10
2024-04-30T18:29:10.915Z,38.29
2024-04-30T18:31:38.780Z,38.60
2024-04-30T18:34:06.720Z,39.00
2024-04-30T18:36:37.960Z,39.00
2024-04-30T18:39:06.057Z,39.17
2024-04-30T18:41:33.912Z,39.84
2024-04-30T18:44:01.810Z,39.80
2024-04-30T18:46:29.699Z,39.55
2024-04-30T18:48:57.702Z,39.41
2024-04-30T18:51:26.349Z,39.44
2024-04-30T18:53:55.033Z,39.28
2024-04-30T18:56:23.980Z,39.07
2024-04-30T18:58:51.783Z,39.13
2024-04-30T19:01:19.798Z,39.52
2024-04-30T19:03:50.825Z,39.52
2024-04-30T19:06:21.302Z,39.58
2024-04-30T19:08:49.365Z,39.76
2024-04-30T19:11:17.193Z,39.82
2024-04-30T19:13:45.409Z,39.82
2024-04-30T19:16:13.372Z,39.87
2024-04-30T19:18:41.403Z,39.82
2024-04-30T19:21:09.359Z,40.07
2024-04-30T19:23:37.268Z,40.11
2024-04-30T19:26:05.216Z,40.01
2024-04-30T19:28:35.338Z,39.89
2024-04-30T19:31:03.309Z,39.90
2024-04-30T19:33:31.724Z,40.22
2024-04-30T19:35:59.731Z,40.50
2024-04-30T19:38:27.489Z,40.47
2024-04-30T19:40:55.403Z,40.63
2024-04-30T19:43:23.240Z,41.00
2024-04-30T19:45:51.102Z,40.99
2024-04-30T19:48:23.083Z,41.15
2024-04-30T19:50:53.506Z,41.23
2024-04-30T19:53:21.333Z,41.39
2024-04-30T19:55:50.657Z,41.64
2024-04-30T19:58:18.559Z,42.04
2024-04-30T20:00:46.686Z,42.29
2024-04-30T20:03:14.771Z,42.47
2024-04-30T20:05:43.420Z,42.80
2024-04-30T20:08:13.222Z,42.73
2024-04-30T20:10:41.036Z,43.30
2024-04-30T20:13:08.907Z,43.72
2024-04-30T20:15:36.840Z,44.23
2024-04-30T20:18:04.872Z,44.84
2024-04-30T20:20:32.690Z,45.00
2024-04-30T20:23:01.273Z,45.37
2024-04-30T20:25:29.097Z,45.66
2024-04-30T20:27:57.061Z,45.92
2024-04-30T20:30:26.184Z,46.29
2024-04-30T20:36:15.272Z,46.24
2024-04-30T20:38:43.104Z,46.21
2024-04-30T20:41:11.759Z,46.32
2024-04-30T20:43:40.217Z,46.34
2024-04-30T20:46:08.070Z,46.27
2024-04-30T20:48:36.032Z,46.20
2024-04-30T20:51:04.684Z,46.38
2024-04-30T20:53:32.531Z,47.15
2024-04-30T20:56:00.424Z,47.30
2024-04-30T20:58:28.268Z,47.15
2024-04-30T21:00:56.109Z,47.00
2024-04-30T21:03:24.287Z,47.48
2024-04-30T21:05:52.108Z,47.69
2024-04-30T21:08:23.903Z,47.67
2024-04-30T21:10:52.374Z,47.75
2024-04-30T21:13:20.811Z,47.93
2024-04-30T21:15:48.751Z,47.80
2024-04-30T21:18:16.740Z,48.50
2024-04-30T21:20:44.684Z,48.25
2024-04-30T21:23:12.675Z,48.31
2024-04-30T21:25:40.501Z,48.71
2024-04-30T21:28:08.357Z,48.82
2024-04-30T21:30:36.194Z,48.78
2024-04-30T21:33:04.667Z,49.33
2024-04-30T21:35:33.042Z,50.03
2024-04-30T21:38:00.930Z,50.15
2024-04-30T21:40:28.800Z,50.60
2024-04-30T21:42:56.771Z,50.20
2024-04-30T21:45:24.687Z,50.15
2024-04-30T21:47:52.661Z,50.57
2024-04-30T21:50:20.547Z,50.73
2024-04-30T21:52:48.544Z,51.31
2024-04-30T21:55:16.328Z,50.97
2024-04-30T21:57:44.211Z,51.17
2024-04-30T22:00:15.240Z,50.94
2024-04-30T22:02:43.192Z,51.25
2024-04-30T22:05:11.198Z,51.10
2024-04-30T22:07:38.976Z,51.26
2024-04-30T22:10:07.285Z,51.50
2024-04-30T22:12:35.182Z,51.36
2024-04-30T22:15:03.202Z,51.32
2024-04-30T22:17:31.115Z,51.44
2024-04-30T22:19:59.117Z,52.01
2024-04-30T22:22:26.972Z,51.78
2024-04-30T22:24:54.893Z,52.27
2024-04-30T22:27:22.889Z,52.17
2024-04-30T22:29:54.967Z,52.50
2024-04-30T22:32:26.075Z,52.88
2024-04-30T22:34:53.996Z,52.91
2024-04-30T22:37:21.942Z,53.16
2024-04-30T22:39:49.782Z,54.07
2024-04-30T22:42:17.694Z,53.74
2024-04-30T22:44:45.480Z,54.84
2024-04-30T22:50:37.184Z,54.49
2024-04-30T22:53:05.162Z,54.76
2024-04-30T22:55:33.238Z,54.33
2024-04-30T22:58:01.231Z,54.48
2024-04-30T23:00:29.166Z,54.77
2024-04-30T23:02:58.225Z,54.89
2024-04-30T23:05:26.275Z,55.55
2024-04-30T23:07:54.063Z,55.97
2024-04-30T23:10:21.814Z,55.58
2024-04-30T23:12:49.790Z,55.94
2024-04-30T23:15:17.657Z,56.07
2024-04-30T23:17:45.570Z,56.09
2024-04-30T23:20:13.643Z,55.94
2024-04-30T23:22:41.586Z,56.19
2024-04-30T23:25:09.803Z,55.77
2024-04-30T23:27:37.621Z,55.84
2024-04-30T23:33:30.707Z,56.36
2024-04-30T23:35:58.530Z,56.69
2024-04-30T23:38:26.404Z,56.33
2024-04-30T23:40:54.276Z,56.72
2024-04-30T23:43:22.170Z,56.98
2024-04-30T23:45:50.040Z,57.20
2024-04-30T23:48:17.960Z,57.12
2024-04-30T23:50:46.047Z,57.13
2024-04-30T23:53:13.840Z,57.28
2024-04-30T23:55:41.688Z,57.27
2024-04-30T23:58:11.406Z,57.58
